createdAt,value
2018-12-04T00:02:10.870Z,36.77
2018-12-04T00:04:39.931Z,37.20
2018-12-04T00:07:08.983Z,35.57
2018-12-04T00:09:38.085Z,37.63
2018-12-04T00:12:07.247Z,33.53
2018-12-04T00:14:36.379Z,36.30
2018-12-04T00:17:05.499Z,36.77
2018-12-04T00:19:34.628Z,34.83
2018-12-04T00:22:03.765Z,34.63
2018-12-04T00:24:32.856Z,36.27
2018-12-04T00:27:01.987Z,39.43
2018-12-04T00:29:31.092Z,36.77
2018-12-04T00:32:00.316Z,37.47
2018-12-04T00:34:29.555Z,36.57
2018-12-04T00:36:58.602Z,35.17
2018-12-04T00:39:27.668Z,36.17
2018-12-04T00:41:56.803Z,35.00
2018-12-04T00:44:26.022Z,33.00
2018-12-04T00:46:55.141Z,29.17
2018-12-04T00:49:24.282Z,28.77
2018-12-04T00:51:53.486Z,30.63
2018-12-04T00:54:22.574Z,30.10
2018-12-04T00:56:51.823Z,30.60
2018-12-04T00:59:20.931Z,31.07
2018-12-04T01:01:50.136Z,32.37
2018-12-04T01:04:19.202Z,32.07
2018-12-04T01:06:48.298Z,31.33
2018-12-04T01:09:17.464Z,30.90
2018-12-04T01:11:46.611Z,32.97
2018-12-04T01:14:15.704Z,31.33
2018-12-04T01:16:44.807Z,30.13
2018-12-04T01:19:13.948Z,29.20
2018-12-04T01:21:43.001Z,28.00
2018-12-04T01:24:12.160Z,29.93
2018-12-04T01:26:41.231Z,27.77
2018-12-04T01:29:10.373Z,27.63
2018-12-04T01:31:39.478Z,26.73
2018-12-04T01:34:08.651Z,27.00
2018-12-04T01:36:37.780Z,27.57
2018-12-04T01:39:08.148Z,26.17
2018-12-04T01:41:37.308Z,26.60
2018-12-04T01:44:06.482Z,25.10
2018-12-04T01:46:35.517Z,26.53
2018-12-04T01:49:04.665Z,30.30
2018-12-04T01:51:33.719Z,28.90
2018-12-04T01:54:02.805Z,26.57
2018-12-04T01:56:31.997Z,26.90
2018-12-04T01:59:01.246Z,23.23
2018-12-04T02:01:30.327Z,26.57
2018-12-04T02:03:59.532Z,25.37
2018-12-04T02:06:28.724Z,26.30
2018-12-04T02:08:57.825Z,24.87
2018-12-04T02:11:26.837Z,24.20
2018-12-04T02:13:55.920Z,23.30
2018-12-04T02:16:25.110Z,22.23
2018-12-04T02:18:54.303Z,21.40
2018-12-04T02:21:23.404Z,21.27
2018-12-04T02:23:52.735Z,22.13
2018-12-04T02:26:21.795Z,23.30
2018-12-04T02:28:51.022Z,23.63
2018-12-04T02:31:20.127Z,24.57
2018-12-04T02:33:49.210Z,25.53
2018-12-04T02:36:18.256Z,26.03
2018-12-04T02:38:47.591Z,26.27
2018-12-04T02:41:16.944Z,23.77
2018-12-04T02:43:46.059Z,21.30
2018-12-04T02:46:15.693Z,20.13
2018-12-04T02:48:44.825Z,21.23
2018-12-04T02:51:14.064Z,19.53
2018-12-04T02:53:43.124Z,18.50
2018-12-04T02:56:12.152Z,21.40
2018-12-04T02:58:41.152Z,20.63
2018-12-04T03:01:10.340Z,22.27
2018-12-04T03:03:39.450Z,22.23
2018-12-04T03:06:08.536Z,24.20
2018-12-04T03:08:38.259Z,23.83
2018-12-04T03:11:07.305Z,24.27
2018-12-04T03:13:36.473Z,26.83
2018-12-04T03:16:06.015Z,28.00
2018-12-04T03:18:35.200Z,24.83
2018-12-04T03:21:04.500Z,25.70
2018-12-04T03:23:33.583Z,25.10
2018-12-04T03:26:02.620Z,23.80
2018-12-04T03:28:31.657Z,22.20
2018-12-04T03:31:00.732Z,24.17
2018-12-04T03:33:37.472Z,23.27
2018-12-04T03:36:07.156Z,21.57
2018-12-04T03:38:36.431Z,44.63
2018-12-04T03:41:05.592Z,56.13
2018-12-04T03:43:34.703Z,56.03
2018-12-04T03:46:03.720Z,64.53
2018-12-04T03:48:33.084Z,90.10
2018-12-04T03:51:02.617Z,70.27
2018-12-04T03:53:31.708Z,65.13
2018-12-04T03:56:00.868Z,46.57
2018-12-04T03:58:29.978Z,32.07
2018-12-04T04:00:59.205Z,24.97
2018-12-04T04:03:29.132Z,23.23
2018-12-04T04:05:58.191Z,21.60
2018-12-04T04:08:27.308Z,22.30
2018-12-04T04:10:56.343Z,23.00
2018-12-04T04:13:25.684Z,21.40
2018-12-04T04:15:54.716Z,20.97
2018-12-04T04:18:23.739Z,20.53
2018-12-04T04:20:52.817Z,19.67
2018-12-04T04:23:22.044Z,21.70
2018-12-04T04:25:51.127Z,23.67
2018-12-04T04:28:20.287Z,22.17
2018-12-04T04:30:49.284Z,22.53
2018-12-04T04:33:18.336Z,23.20
2018-12-04T04:35:48.049Z,22.53
2018-12-04T04:38:17.132Z,22.23
2018-12-04T04:40:46.190Z,26.77
2018-12-04T04:43:15.318Z,29.10
2018-12-04T04:45:44.450Z,29.63
2018-12-04T04:48:13.576Z,31.47
2018-12-04T04:50:43.062Z,29.20
2018-12-04T04:53:12.178Z,27.53
2018-12-04T04:55:41.231Z,32.70
2018-12-04T04:58:10.329Z,32.73
2018-12-04T05:00:39.465Z,57.73
2018-12-04T05:03:08.852Z,32.60
2018-12-04T05:05:38.581Z,30.27
2018-12-04T05:08:07.801Z,29.40
2018-12-04T05:10:36.919Z,30.63
2018-12-04T05:13:06.162Z,31.10
2018-12-04T05:15:35.461Z,30.00
2018-12-04T05:18:04.599Z,29.63
2018-12-04T05:20:34.189Z,32.70
2018-12-04T05:23:03.373Z,43.63
2018-12-04T05:25:32.728Z,32.77
2018-12-04T05:28:01.788Z,32.33
2018-12-04T05:30:30.824Z,35.93
2018-12-04T05:32:59.852Z,39.80
2018-12-04T05:35:29.375Z,39.70
2018-12-04T05:37:58.566Z,42.07
2018-12-04T05:40:27.589Z,39.93
2018-12-04T05:42:56.684Z,35.83
2018-12-04T05:45:25.783Z,33.53
2018-12-04T05:47:55.943Z,31.90
2018-12-04T05:50:25.071Z,31.77
2018-12-04T05:53:05.017Z,40.70
2018-12-04T05:55:34.615Z,25.33
2018-12-04T05:58:04.017Z,35.90
2018-12-04T06:00:33.087Z,34.40
2018-12-04T06:03:02.176Z,33.73
2018-12-04T06:05:31.374Z,37.43
2018-12-04T06:08:00.419Z,37.23
2018-12-04T06:10:29.540Z,47.53
2018-12-04T06:12:58.648Z,46.27
2018-12-04T06:15:27.673Z,45.77
2018-12-04T06:17:57.288Z,39.13
2018-12-04T06:20:26.502Z,40.97
2018-12-04T06:22:56.587Z,39.10
2018-12-04T06:25:26.257Z,51.43
2018-12-04T06:27:55.366Z,40.93
2018-12-04T06:30:24.408Z,35.33
2018-12-04T06:32:53.806Z,34.67
2018-12-04T06:35:23.045Z,33.70
2018-12-04T06:40:46.277Z,42.30
2018-12-04T06:43:15.704Z,37.03
2018-12-04T06:45:44.748Z,35.60
2018-12-04T06:51:00.455Z,44.60
2018-12-04T06:53:29.640Z,40.00
2018-12-04T06:55:59.024Z,36.77
2018-12-04T06:58:28.165Z,38.93
2018-12-04T07:00:58.293Z,33.10
2018-12-04T07:03:27.646Z,44.80
2018-12-04T07:05:57.324Z,38.20
2018-12-04T07:08:27.001Z,33.83
2018-12-04T07:10:57.293Z,34.07
2018-12-04T07:13:27.079Z,34.80
2018-12-04T07:15:57.213Z,36.73
2018-12-04T07:18:26.833Z,47.80
2018-12-04T07:20:56.316Z,49.80
2018-12-04T07:23:25.559Z,59.47
2018-12-04T07:25:54.658Z,46.00
2018-12-04T07:28:23.670Z,38.57
2018-12-04T07:30:52.723Z,41.93
2018-12-04T07:33:27.539Z,43.20
2018-12-04T07:35:56.668Z,43.13
2018-12-04T07:38:25.689Z,26.43
2018-12-04T07:40:54.866Z,27.27
2018-12-04T07:43:23.983Z,29.00
2018-12-04T07:45:53.318Z,28.93
2018-12-04T07:48:22.470Z,27.90
2018-12-04T07:50:51.569Z,28.10
2018-12-04T07:53:20.825Z,28.37
2018-12-04T07:55:50.069Z,30.67
2018-12-04T07:58:19.294Z,32.03
2018-12-04T08:00:48.349Z,33.27
2018-12-04T08:03:17.344Z,34.87
2018-12-04T08:05:46.389Z,38.97
2018-12-04T08:08:15.468Z,36.77
2018-12-04T08:10:44.516Z,37.90
2018-12-04T08:13:13.561Z,40.60
2018-12-04T08:15:42.644Z,45.80
2018-12-04T08:18:11.827Z,44.63
2018-12-04T08:20:41.111Z,51.23
2018-12-04T08:23:10.460Z,48.03
2018-12-04T08:25:39.778Z,51.87
2018-12-04T08:28:09.252Z,49.27
2018-12-04T08:30:38.690Z,56.57
2018-12-04T08:33:08.274Z,59.63
2018-12-04T08:35:37.677Z,57.97
2018-12-04T08:38:07.215Z,59.67
2018-12-04T08:40:36.447Z,55.40
2018-12-04T08:43:05.863Z,55.10
2018-12-04T08:45:35.412Z,57.07
2018-12-04T08:48:05.002Z,54.83
2018-12-04T08:50:34.383Z,56.77
2018-12-04T08:53:03.935Z,56.93
2018-12-04T08:55:33.338Z,57.50
2018-12-04T08:58:04.261Z,64.90
2018-12-04T09:00:33.590Z,65.80
2018-12-04T09:03:05.438Z,64.43
2018-12-04T09:05:35.864Z,64.00
2018-12-04T09:08:09.294Z,63.50
2018-12-04T09:10:35.577Z,65.63
2018-12-04T09:13:05.743Z,66.80
2018-12-04T09:15:35.758Z,68.23
2018-12-04T09:18:05.370Z,65.53
2018-12-04T09:20:34.685Z,66.23
2018-12-04T09:23:04.610Z,62.70
2018-12-04T09:25:34.388Z,65.67
2018-12-04T09:28:03.763Z,63.23
2018-12-04T09:30:33.522Z,64.93
2018-12-04T09:33:02.677Z,64.47
2018-12-04T09:35:32.137Z,65.40
2018-12-04T09:38:02.167Z,64.20
2018-12-04T09:40:32.094Z,64.77
2018-12-04T09:43:04.189Z,54.20
2018-12-04T09:45:41.319Z,55.07
2018-12-04T09:48:10.635Z,49.87
2018-12-04T09:50:40.125Z,55.97
2018-12-04T09:53:09.358Z,54.13
2018-12-04T09:55:38.615Z,53.37
2018-12-04T09:58:07.776Z,52.43
2018-12-04T10:00:36.926Z,52.10
2018-12-04T10:03:06.827Z,51.13
2018-12-04T10:05:36.167Z,50.53
2018-12-04T10:08:05.889Z,54.27
2018-12-04T10:10:35.179Z,47.80
2018-12-04T10:13:04.819Z,48.73
2018-12-04T10:15:34.254Z,49.70
2018-12-04T10:18:03.611Z,48.53
2018-12-04T10:20:32.836Z,48.37
2018-12-04T10:23:02.155Z,57.17
2018-12-04T10:25:31.602Z,47.03
2018-12-04T10:28:01.102Z,41.20
2018-12-04T10:30:30.398Z,40.23
2018-12-04T10:32:59.997Z,41.97
2018-12-04T10:35:29.523Z,47.13
2018-12-04T10:38:00.486Z,46.73
2018-12-04T10:40:29.049Z,46.37
2018-12-04T10:42:58.839Z,65.77
2018-12-04T10:45:28.612Z,49.43
2018-12-04T10:47:57.932Z,46.33
2018-12-04T10:50:27.651Z,47.77
2018-12-04T10:52:57.278Z,50.70
2018-12-04T10:55:26.573Z,50.87
2018-12-04T10:57:56.171Z,44.40
2018-12-04T11:00:32.511Z,45.87
2018-12-04T11:03:06.848Z,51.13
2018-12-04T11:05:36.508Z,48.80
2018-12-04T11:08:05.837Z,52.67
2018-12-04T11:10:35.112Z,52.13
2018-12-04T11:13:04.527Z,53.47
2018-12-04T11:15:33.943Z,53.23
2018-12-04T11:18:02.963Z,53.23
2018-12-04T11:20:32.140Z,50.40
2018-12-04T11:23:01.220Z,52.73
2018-12-04T11:25:30.436Z,53.83
2018-12-04T11:27:59.682Z,54.07
2018-12-04T11:30:28.939Z,52.70
2018-12-04T11:32:58.139Z,52.83
2018-12-04T11:35:27.432Z,52.10
2018-12-04T11:37:56.935Z,52.10
2018-12-04T11:40:26.334Z,49.07
2018-12-04T11:42:55.793Z,48.77
2018-12-04T11:45:25.328Z,49.17
2018-12-04T11:47:55.986Z,48.50
2018-12-04T11:50:25.727Z,42.47
2018-12-04T11:52:55.437Z,41.50
2018-12-04T11:55:24.716Z,43.90
2018-12-04T11:57:54.040Z,40.03
2018-12-04T12:00:37.364Z,38.57
2018-12-04T12:03:06.877Z,37.40
2018-12-04T12:05:37.659Z,35.23
2018-12-04T12:08:07.370Z,37.83
2018-12-04T12:10:37.349Z,38.47
2018-12-04T12:13:07.362Z,40.53
2018-12-04T12:15:37.273Z,39.83
2018-12-04T12:18:06.460Z,40.00
2018-12-04T12:20:36.093Z,49.53
2018-12-04T12:23:06.060Z,41.67
2018-12-04T12:25:35.901Z,40.93
2018-12-04T12:28:05.643Z,40.07
2018-12-04T12:30:35.993Z,38.53
2018-12-04T12:33:06.869Z,39.17
2018-12-04T12:35:36.602Z,39.67
2018-12-04T12:38:06.522Z,40.10
2018-12-04T12:40:36.702Z,40.10
2018-12-04T12:43:06.591Z,39.43
2018-12-04T12:45:36.455Z,37.20
2018-12-04T12:48:07.127Z,36.73
2018-12-04T12:50:37.023Z,36.73
2018-12-04T12:53:06.887Z,38.00
2018-12-04T12:55:36.511Z,37.40
2018-12-04T12:58:06.966Z,38.53
2018-12-04T13:00:36.863Z,39.77
2018-12-04T13:03:07.672Z,41.67
2018-12-04T13:05:37.374Z,39.87
2018-12-04T13:08:06.516Z,40.53
2018-12-04T13:10:36.299Z,40.97
2018-12-04T13:13:06.793Z,41.50
2018-12-04T13:15:36.748Z,43.93
2018-12-04T13:18:06.280Z,43.23
2018-12-04T13:20:36.162Z,41.60
2018-12-04T13:23:05.483Z,40.43
2018-12-04T13:25:34.580Z,41.87
2018-12-04T13:28:03.609Z,42.43
2018-12-04T13:30:32.802Z,41.77
2018-12-04T13:33:01.915Z,38.07
2018-12-04T13:35:30.988Z,38.73
2018-12-04T13:38:00.040Z,37.93
2018-12-04T13:40:29.284Z,39.90
2018-12-04T13:42:58.448Z,39.13
2018-12-04T13:45:27.481Z,40.53
2018-12-04T13:48:00.707Z,41.93
2018-12-04T13:50:25.754Z,40.80
2018-12-04T13:52:54.853Z,40.53
2018-12-04T13:55:24.020Z,40.57
2018-12-04T13:57:53.283Z,39.87
2018-12-04T14:00:22.519Z,40.83
2018-12-04T14:02:51.777Z,40.80
2018-12-04T14:05:21.018Z,41.70
2018-12-04T14:07:50.286Z,40.57
2018-12-04T14:10:19.656Z,40.87
2018-12-04T14:12:48.867Z,41.93
2018-12-04T14:15:18.127Z,41.70
2018-12-04T14:17:47.525Z,39.60
2018-12-04T14:20:16.810Z,42.63
2018-12-04T14:22:46.084Z,42.27
2018-12-04T14:25:15.396Z,42.20
2018-12-04T14:27:48.946Z,43.17
2018-12-04T14:30:14.260Z,43.10
2018-12-04T14:32:43.890Z,42.03
2018-12-04T14:35:14.131Z,42.67
2018-12-04T14:37:43.582Z,43.73
2018-12-04T14:40:13.172Z,42.53
2018-12-04T14:42:42.662Z,41.70
2018-12-04T14:45:12.404Z,45.03
2018-12-04T14:47:42.298Z,49.40
2018-12-04T14:50:12.155Z,45.20
2018-12-04T14:52:42.600Z,44.13
2018-12-04T14:55:12.280Z,50.50
2018-12-04T14:57:42.124Z,47.03
2018-12-04T15:00:12.732Z,62.63
2018-12-04T15:02:42.549Z,98.97
2018-12-04T15:05:12.479Z,173.40
2018-12-04T15:07:41.903Z,138.70
2018-12-04T15:10:12.242Z,123.80
2018-12-04T15:12:41.756Z,132.40
2018-12-04T15:15:11.160Z,135.77
2018-12-04T15:17:40.921Z,164.60
2018-12-04T15:20:10.592Z,162.17
2018-12-04T15:22:40.008Z,131.87
2018-12-04T15:25:09.524Z,110.50
2018-12-04T15:27:38.880Z,90.10
2018-12-04T15:30:08.556Z,112.43
2018-12-04T15:32:37.910Z,111.20
2018-12-04T15:35:07.639Z,114.90
2018-12-04T15:37:37.153Z,116.33
2018-12-04T15:40:07.714Z,104.43
2018-12-04T15:42:37.177Z,88.37
2018-12-04T15:45:07.360Z,86.10
2018-12-04T15:47:36.919Z,72.27
2018-12-04T15:50:07.506Z,60.33
2018-12-04T15:52:37.012Z,52.47
2018-12-04T15:55:06.955Z,51.20
2018-12-04T15:57:36.526Z,53.50
2018-12-04T16:00:07.905Z,54.10
2018-12-04T16:02:37.242Z,52.77
2018-12-04T16:05:08.759Z,53.07
2018-12-04T16:07:38.550Z,59.20
2018-12-04T16:10:12.214Z,70.63
2018-12-04T16:12:42.196Z,74.47
2018-12-04T16:15:12.619Z,75.90
2018-12-04T16:17:42.803Z,78.33
2018-12-04T16:20:13.047Z,91.63
2018-12-04T16:22:43.464Z,137.03
2018-12-04T16:25:13.201Z,88.80
2018-12-04T16:27:44.156Z,62.67
2018-12-04T16:30:14.131Z,52.27
2018-12-04T16:32:43.624Z,56.03
2018-12-04T16:35:13.118Z,60.80
2018-12-04T16:37:43.337Z,45.00
2018-12-04T16:40:13.225Z,65.87
2018-12-04T16:42:43.622Z,57.70
2018-12-04T16:45:13.655Z,54.70
2018-12-04T16:47:43.625Z,60.30
2018-12-04T16:50:14.117Z,59.80
2018-12-04T16:52:44.282Z,58.30
2018-12-04T16:55:14.627Z,65.40
2018-12-04T16:57:44.532Z,61.73
2018-12-04T17:00:14.753Z,64.03
2018-12-04T17:02:44.472Z,73.53
2018-12-04T17:05:14.286Z,70.13
2018-12-04T17:07:44.517Z,61.60
2018-12-04T17:10:14.700Z,58.20
2018-12-04T17:12:44.528Z,56.03
2018-12-04T17:15:14.335Z,58.73
2018-12-04T17:17:44.076Z,50.37
2018-12-04T17:20:13.818Z,48.47
2018-12-04T17:22:43.425Z,50.33
2018-12-04T17:25:13.121Z,52.50
2018-12-04T17:27:42.939Z,52.27
2018-12-04T17:30:12.869Z,49.90
2018-12-04T17:32:42.517Z,56.43
2018-12-04T17:35:11.962Z,57.17
2018-12-04T17:37:41.497Z,63.27
2018-12-04T17:40:11.018Z,84.50
2018-12-04T17:42:40.511Z,101.90
2018-12-04T17:45:10.605Z,80.43
2018-12-04T17:47:39.996Z,81.90
2018-12-04T17:50:10.694Z,72.90
2018-12-04T17:52:40.160Z,77.43
2018-12-04T17:55:09.765Z,81.47
2018-12-04T17:57:39.156Z,79.70
2018-12-04T18:00:09.456Z,63.53
2018-12-04T18:02:38.860Z,71.90
2018-12-04T18:05:08.350Z,81.87
2018-12-04T18:07:37.927Z,57.87
2018-12-04T18:10:08.760Z,98.87
2018-12-04T18:12:38.475Z,102.00
2018-12-04T18:15:08.985Z,113.70
2018-12-04T18:17:38.572Z,116.47
2018-12-04T18:20:08.380Z,121.00
2018-12-04T18:22:38.131Z,122.40
2018-12-04T18:25:07.737Z,150.77
2018-12-04T18:27:37.782Z,153.60
2018-12-04T18:30:08.048Z,155.97
2018-12-04T18:32:37.706Z,155.00
2018-12-04T18:35:07.674Z,119.87
2018-12-04T18:37:37.171Z,97.60
2018-12-04T18:40:07.342Z,93.70
2018-12-04T18:42:36.848Z,83.87
2018-12-04T18:45:07.795Z,80.23
2018-12-04T18:47:37.362Z,77.43
2018-12-04T18:50:09.197Z,79.17
2018-12-04T18:52:38.758Z,85.60
2018-12-04T18:55:08.731Z,95.13
2018-12-04T18:57:38.273Z,102.03
2018-12-04T19:00:09.166Z,85.90
2018-12-04T19:02:38.508Z,81.93
2018-12-04T19:05:07.868Z,76.23
2018-12-04T19:07:37.273Z,71.60
2018-12-04T19:10:06.848Z,81.03
2018-12-04T19:12:36.167Z,73.07
2018-12-04T19:15:05.855Z,72.97
2018-12-04T19:17:35.346Z,77.03
2018-12-04T19:20:05.076Z,76.03
2018-12-04T19:22:34.462Z,75.80
2018-12-04T19:25:03.781Z,81.90
2018-12-04T19:27:33.198Z,82.60
2018-12-04T19:30:02.925Z,81.57
2018-12-04T19:32:32.300Z,82.03
2018-12-04T19:35:02.104Z,77.53
2018-12-04T19:37:31.413Z,64.37
2018-12-04T19:40:00.680Z,61.50
2018-12-04T19:42:29.829Z,56.10
2018-12-04T19:44:59.023Z,51.77
2018-12-04T19:47:28.080Z,54.63
2018-12-04T19:49:57.121Z,52.80
2018-12-04T19:52:26.502Z,50.30
2018-12-04T19:54:55.644Z,54.00
2018-12-04T19:57:24.680Z,52.63
2018-12-04T19:59:53.764Z,53.40
2018-12-04T20:02:22.873Z,51.60
2018-12-04T20:04:51.864Z,53.87
2018-12-04T20:07:20.942Z,48.70
2018-12-04T20:09:50.100Z,48.73
2018-12-04T20:12:19.152Z,49.83
2018-12-04T20:14:51.190Z,53.43
2018-12-04T20:17:28.419Z,56.00
2018-12-04T20:20:00.452Z,58.33
2018-12-04T20:22:31.759Z,57.60
2018-12-04T20:25:03.951Z,60.47
2018-12-04T20:27:35.303Z,62.30
2018-12-04T20:30:09.310Z,68.80
2018-12-04T20:32:39.074Z,67.77
2018-12-04T20:35:09.613Z,64.93
2018-12-04T20:37:39.666Z,66.60
2018-12-04T20:40:09.453Z,67.93
2018-12-04T20:42:39.416Z,69.13
2018-12-04T20:45:09.261Z,73.30
2018-12-04T20:47:38.736Z,66.63
2018-12-04T20:50:09.357Z,65.57
2018-12-04T20:52:39.269Z,65.17
2018-12-04T20:55:09.313Z,72.17
2018-12-04T20:57:38.517Z,73.50
2018-12-04T21:00:12.827Z,80.77
2018-12-04T21:02:43.327Z,83.10
2018-12-04T21:05:15.142Z,81.40
2018-12-04T21:07:47.086Z,82.83
2018-12-04T21:10:17.326Z,87.43
2018-12-04T21:12:48.837Z,76.70
2018-12-04T21:15:18.932Z,72.53
2018-12-04T21:17:49.794Z,71.73
2018-12-04T21:20:19.951Z,65.60
2018-12-04T21:22:51.204Z,64.03
2018-12-04T21:25:22.318Z,58.80
2018-12-04T21:27:59.019Z,60.40
2018-12-04T21:30:33.222Z,59.27
2018-12-04T21:33:07.592Z,60.47
2018-12-04T21:35:44.282Z,60.07
2018-12-04T21:38:24.118Z,59.97
2018-12-04T21:41:06.064Z,63.90
2018-12-04T21:43:40.553Z,60.67
2018-12-04T21:46:18.004Z,63.27
2018-12-04T21:48:48.301Z,63.30
2018-12-04T21:51:18.690Z,64.73
2018-12-04T21:53:48.420Z,60.17
2018-12-04T21:56:19.347Z,52.20
2018-12-04T21:58:50.342Z,47.30
2018-12-04T22:01:23.048Z,45.33
2018-12-04T22:03:53.719Z,37.87
2018-12-04T22:06:24.938Z,38.47
2018-12-04T22:08:57.367Z,31.43
2018-12-04T22:11:27.078Z,31.20
2018-12-04T22:13:59.018Z,29.23
2018-12-04T22:16:28.812Z,29.33
2018-12-04T22:18:58.891Z,30.60
2018-12-04T22:21:28.338Z,34.57
2018-12-04T22:23:57.751Z,35.63
2018-12-04T22:26:27.367Z,37.17
2018-12-04T22:28:57.112Z,36.67
2018-12-04T22:31:26.973Z,39.93
2018-12-04T22:33:56.694Z,38.63
2018-12-04T22:36:26.585Z,41.60
2018-12-04T22:38:56.100Z,39.70
2018-12-04T22:41:25.781Z,40.07
2018-12-04T22:43:55.256Z,43.87
2018-12-04T22:46:24.886Z,46.47
2018-12-04T22:48:54.314Z,45.43
2018-12-04T22:51:23.662Z,47.40
2018-12-04T22:53:53.174Z,52.77
2018-12-04T22:56:23.161Z,52.40
2018-12-04T22:58:52.820Z,48.07
2018-12-04T23:01:33.081Z,51.10
2018-12-04T23:04:02.608Z,54.83
2018-12-04T23:06:32.097Z,59.10
2018-12-04T23:09:01.488Z,56.63
2018-12-04T23:11:31.027Z,55.47
2018-12-04T23:14:00.213Z,55.43
2018-12-04T23:16:29.815Z,57.30
2018-12-04T23:18:59.808Z,54.87
2018-12-04T23:21:29.370Z,57.67
2018-12-04T23:23:58.610Z,54.60
2018-12-04T23:26:27.953Z,50.20
2018-12-04T23:28:57.332Z,51.07
2018-12-04T23:31:26.685Z,51.10
2018-12-04T23:33:55.980Z,47.00
2018-12-04T23:36:25.285Z,46.60
2018-12-04T23:38:54.469Z,44.27
2018-12-04T23:41:24.036Z,40.47
2018-12-04T23:43:53.363Z,43.50
2018-12-04T23:46:22.847Z,40.50
2018-12-04T23:48:52.220Z,38.23
2018-12-04T23:51:21.464Z,37.10
2018-12-04T23:53:50.771Z,36.53
2018-12-04T23:56:20.197Z,36.27
2018-12-04T23:58:49.558Z,36.63
